Time;durP1;ratioP1;P1;durP2;ratioP2;P2;SDS_P1;SDS_P2;PMS_P1;PMS_P2;Temp;Humidity;BMP_temperature;BMP_pressure;BME280_temperature;BME280_humidity;BME280_pressure;Samples;Min_cycle;Max_cycle;Signal;HPM_P1;HPM_P2
2023/01/24 00:00:39;;;;;;;21.75;14.35;;;2.10;99.90;;;;;;5017857;28;20088;-58
2023/01/24 00:03:04;;;;;;;26.85;15.38;;;2.10;99.90;;;;;;5017337;28;20033;-57
2023/01/24 00:05:33;;;;;;;30.45;15.57;;;2.10;99.90;;;;;;5016459;28;20038;-57
2023/01/24 00:07:59;;;;;;;28.58;14.45;;;2.10;99.90;;;;;;5015774;28;20050;-58
2023/01/24 00:10:25;;;;;;;24.63;14.95;;;2.10;99.90;;;;;;5017296;28;20037;-56
2023/01/24 00:12:50;;;;;;;30.52;15.85;;;2.10;99.90;;;;;;5015363;28;20372;-59
2023/01/24 00:15:16;;;;;;;32.75;16.67;;;2.10;99.90;;;;;;5016412;28;20025;-59
2023/01/24 00:17:42;;;;;;;22.67;14.20;;;2.10;99.90;;;;;;5015274;28;20374;-56
2023/01/24 00:20:08;;;;;;;23.85;15.52;;;2.10;99.90;;;;;;5014771;28;20377;-56
2023/01/24 00:22:33;;;;;;;25.52;14.65;;;2.10;99.90;;;;;;5017762;28;20040;-55
2023/01/24 00:24:59;;;;;;;27.88;14.95;;;2.10;99.90;;;;;;5019240;28;20029;-56
2023/01/24 00:27:24;;;;;;;23.40;13.40;;;2.10;99.90;;;;;;5021450;28;20095;-60
2023/01/24 00:29:50;;;;;;;27.88;14.90;;;2.10;99.90;;;;;;5020616;28;20124;-57
2023/01/24 00:32:15;;;;;;;28.83;14.88;;;2.10;99.90;;;;;;5021329;28;20069;-57
2023/01/24 00:34:41;;;;;;;23.27;13.77;;;2.10;99.90;;;;;;5019874;28;20049;-60
2023/01/24 00:37:07;;;;;;;25.13;14.45;;;2.10;99.90;;;;;;5019598;28;20022;-59
2023/01/24 00:39:32;;;;;;;19.88;13.10;;;2.10;99.90;;;;;;5020808;28;20025;-56
2023/01/24 00:41:58;;;;;;;24.27;14.82;;;2.10;99.90;;;;;;5021259;28;20029;-57
2023/01/24 00:44:23;;;;;;;23.27;13.90;;;2.00;99.90;;;;;;5018369;28;20471;-58
2023/01/24 00:46:51;;;;;;;24.05;13.55;;;2.00;99.90;;;;;;5019944;28;20018;-61
2023/01/24 00:49:17;;;;;;;21.90;14.15;;;2.00;99.90;;;;;;5021002;28;20057;-58
2023/01/24 00:51:42;;;;;;;20.77;11.85;;;2.00;99.90;;;;;;5020714;28;20879;-57
2023/01/24 00:54:08;;;;;;;23.63;13.40;;;2.00;99.90;;;;;;5019713;28;20026;-55
2023/01/24 00:56:33;;;;;;;23.27;12.85;;;2.00;99.90;;;;;;5019729;28;20399;-58
2023/01/24 00:58:59;;;;;;;21.08;13.45;;;2.00;99.90;;;;;;5021300;28;20033;-56
2023/01/24 01:01:25;;;;;;;21.90;14.10;;;2.00;99.90;;;;;;5019489;28;20025;-56
2023/01/24 01:03:54;;;;;;;27.02;14.75;;;2.00;99.90;;;;;;5019564;28;20395;-56
2023/01/24 01:06:20;;;;;;;26.63;14.57;;;2.00;99.90;;;;;;5017106;28;20029;-60
2023/01/24 01:08:45;;;;;;;22.65;13.18;;;2.00;99.90;;;;;;5020176;28;20037;-54
2023/01/24 01:11:11;;;;;;;24.42;13.93;;;2.00;99.90;;;;;;5020860;28;20124;-56
2023/01/24 01:13:36;;;;;;;26.50;14.50;;;2.00;99.90;;;;;;5020472;28;20030;-59
2023/01/24 01:16:09;;;;;;;20.42;12.55;;;2.00;99.90;;;;;;5018512;28;20053;-58
2023/01/24 01:18:36;;;;;;;21.90;11.93;;;2.00;99.90;;;;;;5020176;28;20033;-55
2023/01/24 01:21:03;;;;;;;22.58;14.32;;;2.00;99.90;;;;;;5019893;28;20125;-60
2023/01/24 01:23:29;;;;;;;22.83;13.95;;;2.00;99.90;;;;;;5020220;28;20534;-56
2023/01/24 01:26:02;;;;;;;26.10;14.85;;;2.00;99.90;;;;;;5016395;28;20057;-55
2023/01/24 01:28:29;;;;;;;28.42;14.75;;;2.00;99.90;;;;;;5016065;28;20045;-58
2023/01/24 01:30:55;;;;;;;26.20;14.65;;;2.00;99.90;;;;;;5019629;28;20022;-57
2023/01/24 01:33:22;;;;;;;19.17;12.82;;;2.00;99.90;;;;;;5019939;28;20034;-59
2023/01/24 01:35:48;;;;;;;26.15;16.17;;;2.00;99.90;;;;;;5018493;28;20137;-58
2023/01/24 01:38:14;;;;;;;24.25;13.90;;;2.00;99.90;;;;;;5019116;28;20025;-55
2023/01/24 01:40:40;;;;;;;24.10;14.35;;;2.00;99.90;;;;;;5020140;28;20424;-55
2023/01/24 01:43:13;;;;;;;21.95;13.38;;;2.00;99.90;;;;;;5020309;28;20018;-58
2023/01/24 01:45:41;;;;;;;20.63;12.30;;;2.00;99.90;;;;;;5017639;28;20129;-56
2023/01/24 01:48:13;;;;;;;21.48;13.75;;;2.00;99.90;;;;;;5018974;28;20466;-58
2023/01/24 01:50:44;;;;;;;20.45;12.43;;;2.00;99.90;;;;;;5018767;28;20468;-58
2023/01/24 01:53:11;;;;;;;20.48;13.65;;;1.90;99.90;;;;;;5019798;28;20104;-58
2023/01/24 01:55:40;;;;;;;24.92;13.68;;;1.90;99.90;;;;;;5017317;28;20480;-59
2023/01/24 01:58:07;;;;;;;21.13;13.40;;;1.90;99.90;;;;;;5017978;28;20037;-59
2023/01/24 02:00:33;;;;;;;24.95;14.38;;;2.00;99.90;;;;;;5017123;28;20064;-58
2023/01/24 02:03:39;;;;;;;25.30;12.80;;;1.90;99.90;;;;;;5016027;28;20053;-59
2023/01/24 02:06:15;;;;;;;19.38;12.50;;;2.00;99.90;;;;;;5018592;28;20627;-59
2023/01/24 02:08:42;;;;;;;23.98;14.07;;;1.90;99.90;;;;;;5018320;28;20476;-59
2023/01/24 02:16:02;;;;;;;29.45;14.23;;;1.90;99.90;;;;;;5019349;28;20029;-60
2023/01/24 02:16:39;;;;;;;23.23;13.07;;;1.90;99.90;;;;;;5018154;28;20033;-58
2023/01/24 02:19:11;;;;;;;22.88;13.43;;;1.90;99.90;;;;;;5018616;28;20264;-59
2023/01/24 02:21:37;;;;;;;25.40;14.32;;;1.90;99.90;;;;;;5018965;28;20514;-58
2023/01/24 02:24:12;;;;;;;23.30;13.98;;;1.90;99.90;;;;;;5017784;28;20030;-61
2023/01/24 02:26:38;;;;;;;25.92;14.45;;;1.90;99.90;;;;;;5016727;28;20055;-58
2023/01/24 02:29:08;;;;;;;27.83;14.05;;;1.80;99.90;;;;;;5017251;28;20038;-59
2023/01/24 02:31:54;;;;;;;27.80;13.20;;;1.80;99.90;;;;;;5016724;28;20175;-60
2023/01/24 02:34:20;;;;;;;24.30;13.07;;;1.80;99.90;;;;;;5017651;28;20033;-57
2023/01/24 02:36:51;;;;;;;20.60;12.85;;;1.80;99.90;;;;;;5016661;28;20026;-57
2023/01/24 02:39:21;;;;;;;20.83;13.10;;;1.80;99.90;;;;;;5019158;28;20032;-61
2023/01/24 02:41:49;;;;;;;23.30;14.13;;;1.80;99.90;;;;;;5019079;28;20018;-60
2023/01/24 02:44:22;;;;;;;22.13;12.93;;;1.80;99.90;;;;;;5018771;28;20021;-57
2023/01/24 02:46:48;;;;;;;21.65;12.25;;;1.80;99.90;;;;;;5016313;28;20022;-56
2023/01/24 02:49:14;;;;;;;19.42;12.23;;;1.80;99.90;;;;;;5017124;28;20024;-55
2023/01/24 02:54:23;;;;;;;22.20;13.57;;;1.80;99.90;;;;;;5017921;28;20070;-61
2023/01/24 02:59:33;;;;;;;24.63;14.25;;;1.80;99.90;;;;;;5018241;28;20040;-59
2023/01/24 03:01:58;;;;;;;21.45;13.88;;;1.80;99.90;;;;;;5018765;28;20109;-56
2023/01/24 03:04:24;;;;;;;22.33;13.13;;;1.80;99.90;;;;;;5019178;28;20082;-57
2023/01/24 03:06:50;;;;;;;22.80;13.90;;;1.80;99.90;;;;;;5017792;28;20411;-59
2023/01/24 03:09:19;;;;;;;25.80;13.35;;;1.80;99.90;;;;;;5018931;28;20048;-59
2023/01/24 03:11:49;;;;;;;20.73;13.07;;;1.80;99.90;;;;;;5017117;28;20452;-59
2023/01/24 03:36:19;;;;;;;23.98;12.48;;;1.80;99.90;;;;;;5016893;28;20040;-59
2023/01/24 03:41:34;;;;;;;23.48;12.73;;;1.80;99.90;;;;;;5017297;28;20175;-54
2023/01/24 03:44:00;;;;;;;24.80;13.65;;;1.80;99.90;;;;;;5017930;28;20033;-55
2023/01/24 03:46:25;;;;;;;22.92;13.68;;;1.80;99.90;;;;;;5015725;28;20037;-55
2023/01/24 03:48:51;;;;;;;19.17;11.40;;;1.80;99.90;;;;;;5018257;28;20032;-59
2023/01/24 03:54:01;;;;;;;17.50;11.15;;;1.80;99.90;;;;;;5017574;28;20037;-56
2023/01/24 03:56:29;;;;;;;18.85;11.65;;;1.80;99.90;;;;;;5017860;28;20026;-56
2023/01/24 03:58:54;;;;;;;19.77;12.80;;;1.80;99.90;;;;;;5018877;28;20041;-58
2023/01/24 04:01:20;;;;;;;21.23;12.18;;;1.80;99.90;;;;;;5021219;28;20502;-58
2023/01/24 04:03:46;;;;;;;21.73;13.57;;;1.80;99.90;;;;;;5020244;28;20026;-57
2023/01/24 04:06:11;;;;;;;19.30;11.32;;;1.80;99.90;;;;;;5021682;28;20018;-59
2023/01/24 04:08:37;;;;;;;19.75;11.68;;;1.80;99.90;;;;;;5021332;28;20022;-60
2023/01/24 04:11:02;;;;;;;18.90;11.88;;;1.80;99.90;;;;;;5022146;28;20044;-56
2023/01/24 04:13:28;;;;;;;21.10;12.30;;;1.80;99.90;;;;;;5020857;28;20104;-58
2023/01/24 04:15:53;;;;;;;9.43;5.65;;;1.80;99.90;;;;;;5021025;28;20029;-60
2023/01/24 04:18:19;;;;;;;6.47;4.93;;;1.70;99.90;;;;;;5022049;28;20032;-58
2023/01/24 04:20:44;;;;;;;10.45;7.07;;;1.70;99.90;;;;;;5021591;28;20030;-61
2023/01/24 04:23:11;;;;;;;14.02;9.00;;;1.70;99.90;;;;;;5021870;28;20037;-58
2023/01/24 04:25:37;;;;;;;16.77;10.27;;;1.70;99.90;;;;;;5041923;22;20129;-56
2023/01/24 04:28:03;;;;;;;16.77;10.73;;;1.80;99.90;;;;;;5020968;28;20108;-55
2023/01/24 04:30:28;;;;;;;17.58;10.75;;;1.80;99.90;;;;;;5018914;28;20025;-58
2023/01/24 04:32:54;;;;;;;17.05;10.95;;;1.70;99.90;;;;;;5019636;28;20069;-57
2023/01/24 04:35:23;;;;;;;18.98;10.88;;;1.70;99.90;;;;;;5020037;28;20583;-54
2023/01/24 04:37:49;;;;;;;21.27;10.80;;;1.80;99.90;;;;;;5019680;28;20029;-58
2023/01/24 04:40:15;;;;;;;17.42;10.98;;;1.80;99.90;;;;;;5021590;28;20427;-58
2023/01/24 04:42:42;;;;;;;19.48;11.00;;;1.80;99.90;;;;;;5018821;28;20034;-56
2023/01/24 04:45:08;;;;;;;19.48;12.23;;;1.80;99.90;;;;;;5019197;28;20029;-58
2023/01/24 04:47:34;;;;;;;22.38;12.63;;;1.80;99.90;;;;;;5020910;28;20104;-56
2023/01/24 04:49:59;;;;;;;19.23;10.50;;;1.80;99.90;;;;;;5019385;28;20117;-57
2023/01/24 04:52:25;;;;;;;17.52;10.20;;;1.70;99.90;;;;;;5019326;28;20037;-57
2023/01/24 04:54:51;;;;;;;17.13;10.52;;;1.70;99.90;;;;;;5019420;28;20025;-57
2023/01/24 04:57:17;;;;;;;19.42;11.85;;;1.70;99.90;;;;;;5019436;28;20078;-56
2023/01/24 04:59:43;;;;;;;16.88;10.68;;;1.70;99.90;;;;;;5017853;28;20026;-57
2023/01/24 05:02:08;;;;;;;18.60;9.52;;;1.70;99.90;;;;;;5019900;28;20044;-54
2023/01/24 05:04:34;;;;;;;18.75;10.73;;;1.80;99.90;;;;;;5019913;28;20124;-57
2023/01/24 05:07:00;;;;;;;18.30;10.32;;;1.70;99.90;;;;;;5019333;28;20081;-55
2023/01/24 05:09:26;;;;;;;16.30;10.65;;;1.70;99.90;;;;;;5018780;28;20428;-58
2023/01/24 05:11:51;;;;;;;17.15;11.23;;;1.70;99.90;;;;;;5020882;28;20108;-57
2023/01/24 05:14:17;;;;;;;14.48;10.70;;;1.80;99.90;;;;;;5018753;28;20067;-56
2023/01/24 05:16:42;;;;;;;15.50;10.45;;;1.80;99.90;;;;;;5019999;28;20037;-56
2023/01/24 05:19:08;;;;;;;15.98;10.27;;;1.70;99.90;;;;;;5019854;28;20021;-56
2023/01/24 05:21:33;;;;;;;14.88;10.05;;;1.70;99.90;;;;;;5020693;28;20030;-56
2023/01/24 05:23:59;;;;;;;14.43;9.27;;;1.70;99.90;;;;;;5019642;28;20021;-56
2023/01/24 05:26:26;;;;;;;17.40;10.70;;;1.70;99.90;;;;;;5019017;28;20042;-54
2023/01/24 05:28:53;;;;;;;16.77;10.68;;;1.70;99.90;;;;;;5019047;28;20025;-57
2023/01/24 05:31:19;;;;;;;16.17;11.23;;;1.70;99.90;;;;;;5017494;28;20032;-53
2023/01/24 05:33:45;;;;;;;16.48;10.77;;;1.70;99.90;;;;;;5018860;28;20033;-57
2023/01/24 05:36:14;;;;;;;12.15;6.85;;;1.70;99.90;;;;;;5019924;28;20456;-55
2023/01/24 05:38:40;;;;;;;9.18;5.30;;;1.60;99.90;;;;;;5017536;28;20026;-57
2023/01/24 05:41:08;;;;;;;11.50;7.28;;;1.60;99.90;;;;;;5020039;28;20511;-56
2023/01/24 05:43:35;;;;;;;12.43;7.57;;;1.60;99.90;;;;;;5019857;28;20057;-57
2023/01/24 05:46:08;;;;;;;15.07;9.70;;;1.60;99.90;;;;;;5019682;28;20106;-56
2023/01/24 05:48:34;;;;;;;14.32;8.00;;;1.60;99.90;;;;;;5018545;28;20025;-56
2023/01/24 05:51:02;;;;;;;11.55;9.05;;;1.70;99.90;;;;;;5018949;28;20045;-57
2023/01/24 05:53:28;;;;;;;12.52;8.50;;;1.70;99.90;;;;;;5016661;28;20384;-56
2023/01/24 05:55:59;;;;;;;12.07;6.90;;;1.70;99.90;;;;;;5017565;28;20026;-55
2023/01/24 05:58:26;;;;;;;12.05;5.95;;;1.70;99.90;;;;;;5017916;28;20471;-57
2023/01/24 06:00:52;;;;;;;7.38;5.40;;;1.70;99.90;;;;;;5017669;28;20028;-54
2023/01/24 06:03:18;;;;;;;7.75;5.90;;;1.70;99.90;;;;;;5019313;28;20026;-56
2023/01/24 06:05:53;;;;;;;12.25;8.23;;;1.70;99.90;;;;;;5018227;28;20037;-56
2023/01/24 06:08:20;;;;;;;11.07;7.45;;;1.70;99.90;;;;;;5018157;28;20025;-57
2023/01/24 06:10:46;;;;;;;14.15;8.85;;;1.60;99.90;;;;;;5016377;28;20056;-56
2023/01/24 06:13:12;;;;;;;10.77;7.93;;;1.60;99.90;;;;;;5019329;28;20058;-57
2023/01/24 06:15:39;;;;;;;12.05;7.57;;;1.70;99.90;;;;;;5018287;28;20045;-58
2023/01/24 06:18:05;;;;;;;10.55;7.45;;;1.60;99.90;;;;;;5019439;28;20032;-56
2023/01/24 06:20:32;;;;;;;13.60;7.10;;;1.70;99.90;;;;;;5017015;28;20112;-54
2023/01/24 06:23:06;;;;;;;13.57;8.07;;;1.60;99.90;;;;;;5017998;28;20499;-55
2023/01/24 06:25:32;;;;;;;10.80;7.47;;;1.60;99.90;;;;;;5017426;28;20614;-57
2023/01/24 06:27:58;;;;;;;11.65;7.55;;;1.60;99.90;;;;;;5017755;28;20436;-57
2023/01/24 06:30:24;;;;;;;11.00;7.47;;;1.60;99.90;;;;;;5018004;28;20087;-56
2023/01/24 06:33:14;;;;;;;10.57;7.47;;;1.60;99.90;;;;;;5018664;28;20419;-56
2023/01/24 06:36:10;;;;;;;8.52;5.93;;;1.70;99.90;;;;;;5017292;28;20026;-55
2023/01/24 06:38:36;;;;;;;5.32;4.05;;;1.60;99.90;;;;;;5016704;28;20027;-57
2023/01/24 06:41:02;;;;;;;6.40;4.32;;;1.60;99.90;;;;;;5018180;28;20302;-55
2023/01/24 06:43:28;;;;;;;5.38;4.03;;;1.60;99.90;;;;;;5018727;28;20025;-58
2023/01/24 06:45:55;;;;;;;5.25;4.10;;;1.60;99.90;;;;;;5016798;28;20032;-55
2023/01/24 06:48:21;;;;;;;5.72;4.00;;;1.60;99.90;;;;;;5018719;28;20040;-57
2023/01/24 06:50:47;;;;;;;7.82;4.63;;;1.60;99.90;;;;;;5019438;28;20033;-57
2023/01/24 06:53:14;;;;;;;4.85;4.07;;;1.60;99.90;;;;;;5018738;28;20089;-58
2023/01/24 06:55:43;;;;;;;7.28;5.60;;;1.60;99.90;;;;;;5017543;28;20035;-58
2023/01/24 06:58:09;;;;;;;8.25;6.38;;;1.60;99.90;;;;;;5018775;28;20017;-58
2023/01/24 07:00:34;;;;;;;9.55;6.68;;;1.60;99.90;;;;;;5018585;28;20037;-55
2023/01/24 07:03:02;;;;;;;10.30;5.93;;;1.60;99.90;;;;;;5018825;28;20503;-56
2023/01/24 07:05:28;;;;;;;9.25;6.13;;;1.60;99.90;;;;;;5015920;28;20029;-57
2023/01/24 07:07:54;;;;;;;10.93;6.55;;;1.60;99.90;;;;;;5017317;28;20396;-57
2023/01/24 07:10:20;;;;;;;11.50;6.60;;;1.60;99.90;;;;;;5016451;28;20083;-57
2023/01/24 07:12:46;;;;;;;8.27;5.15;;;1.60;99.90;;;;;;5017665;28;20063;-57
2023/01/24 07:15:12;;;;;;;7.47;4.80;;;1.60;99.90;;;;;;5015956;28;20053;-54
2023/01/24 07:17:37;;;;;;;6.93;4.10;;;1.60;99.90;;;;;;5015306;28;20030;-55
2023/01/24 07:20:03;;;;;;;5.68;3.80;;;1.60;99.90;;;;;;5017752;28;20026;-55
2023/01/24 07:22:32;;;;;;;6.55;4.97;;;1.60;99.90;;;;;;5016746;28;20480;-57
2023/01/24 07:24:58;;;;;;;8.48;5.80;;;1.60;99.90;;;;;;5016538;28;20029;-58
2023/01/24 07:27:24;;;;;;;8.20;5.20;;;1.60;99.90;;;;;;5016330;28;20041;-55
2023/01/24 07:29:49;;;;;;;7.10;4.90;;;1.60;99.90;;;;;;5018010;28;20476;-54
2023/01/24 07:32:15;;;;;;;7.80;4.68;;;1.60;99.90;;;;;;5017116;28;20033;-56
2023/01/24 07:34:40;;;;;;;5.60;4.57;;;1.60;99.90;;;;;;5018279;28;20061;-52
2023/01/24 07:37:07;;;;;;;5.35;4.40;;;1.60;99.90;;;;;;5018358;28;20415;-55
2023/01/24 07:39:33;;;;;;;7.65;4.80;;;1.60;99.90;;;;;;5017681;28;20370;-56
2023/01/24 07:41:58;;;;;;;5.97;4.35;;;1.50;99.90;;;;;;5016818;28;20028;-56
2023/01/24 07:44:24;;;;;;;7.00;4.72;;;1.60;99.90;;;;;;5018540;28;20033;-55
2023/01/24 07:46:49;;;;;;;7.60;5.18;;;1.50;99.90;;;;;;5018342;28;20037;-52
2023/01/24 07:49:15;;;;;;;7.53;5.00;;;1.60;99.90;;;;;;5017291;28;20052;-57
2023/01/24 07:51:41;;;;;;;8.43;5.00;;;1.60;99.90;;;;;;5018131;28;20397;-56
2023/01/24 07:54:06;;;;;;;8.57;4.07;;;1.60;99.90;;;;;;5017098;28;20021;-58
2023/01/24 07:56:32;;;;;;;5.32;3.92;;;1.60;99.90;;;;;;5017470;28;20026;-56
2023/01/24 07:58:58;;;;;;;7.57;4.10;;;1.50;99.90;;;;;;5016357;28;20632;-58
2023/01/24 08:01:25;;;;;;;6.20;4.05;;;1.50;99.90;;;;;;4999820;28;20029;-58
2023/01/24 08:03:57;;;;;;;7.28;4.25;;;1.60;99.90;;;;;;5015991;28;20018;-57
2023/01/24 08:06:24;;;;;;;5.32;3.97;;;1.50;99.90;;;;;;5015507;28;20117;-57
2023/01/24 08:08:50;;;;;;;7.05;4.32;;;1.60;99.90;;;;;;5015664;28;20026;-57
2023/01/24 08:11:17;;;;;;;7.53;4.43;;;1.60;99.90;;;;;;5015916;28;20032;-56
2023/01/24 08:13:43;;;;;;;5.78;4.30;;;1.60;99.90;;;;;;5017385;28;20663;-58
2023/01/24 08:16:09;;;;;;;5.95;4.50;;;1.60;99.90;;;;;;5014373;28;20029;-56
2023/01/24 08:18:37;;;;;;;7.75;5.00;;;1.60;99.90;;;;;;5013900;28;20038;-56
2023/01/24 08:21:04;;;;;;;6.03;5.05;;;1.60;99.90;;;;;;5016937;28;20022;-55
2023/01/24 08:23:29;;;;;;;7.10;5.28;;;1.60;99.90;;;;;;5014949;28;20029;-56
2023/01/24 08:25:57;;;;;;;7.25;4.78;;;1.60;99.90;;;;;;5015238;28;20038;-58
2023/01/24 08:28:23;;;;;;;6.53;4.65;;;1.60;99.90;;;;;;5017035;28;20030;-55
2023/01/24 08:30:49;;;;;;;6.07;5.30;;;1.60;99.90;;;;;;5017830;28;20021;-57
2023/01/24 08:33:18;;;;;;;7.68;5.97;;;1.70;99.90;;;;;;5015941;28;20026;-57
2023/01/24 08:35:45;;;;;;;7.28;5.43;;;1.70;99.90;;;;;;5016203;28;20511;-56
2023/01/24 08:38:11;;;;;;;6.25;4.65;;;1.70;99.90;;;;;;5015764;28;20029;-56
2023/01/24 08:40:37;;;;;;;7.90;4.95;;;1.70;99.90;;;;;;5016309;28;20033;-57
2023/01/24 08:43:02;;;;;;;8.10;4.60;;;1.70;99.90;;;;;;5015353;28;20037;-57
2023/01/24 08:45:29;;;;;;;5.75;4.10;;;1.70;99.90;;;;;;5016861;28;20026;-57
2023/01/24 08:47:55;;;;;;;7.45;5.30;;;1.70;99.90;;;;;;5020425;28;20500;-56
2023/01/24 08:50:21;;;;;;;7.05;5.35;;;1.70;99.90;;;;;;5020644;28;20063;-57
2023/01/24 08:52:47;;;;;;;5.93;4.15;;;1.80;99.90;;;;;;5021619;28;20344;-57
2023/01/24 08:55:14;;;;;;;6.38;4.03;;;1.70;99.90;;;;;;5016835;28;20030;-58
2023/01/24 08:57:39;;;;;;;7.72;4.50;;;1.70;99.90;;;;;;5019714;28;20091;-56
2023/01/24 09:00:06;;;;;;;6.18;3.90;;;1.70;99.90;;;;;;5020712;28;20030;-56
2023/01/24 09:02:37;;;;;;;6.68;4.55;;;1.70;99.90;;;;;;5018057;28;20038;-57
2023/01/24 09:05:04;;;;;;;7.95;5.18;;;1.70;99.90;;;;;;5019032;28;20030;-58
2023/01/24 09:07:30;;;;;;;6.20;5.57;;;1.70;99.90;;;;;;5019696;28;20530;-54
2023/01/24 09:09:56;;;;;;;8.90;5.97;;;1.70;99.90;;;;;;5018441;28;20026;-53
2023/01/24 09:12:21;;;;;;;8.57;5.32;;;1.80;99.90;;;;;;5020495;28;20032;-56
2023/01/24 09:14:47;;;;;;;6.45;5.43;;;1.70;99.90;;;;;;5020540;28;20269;-57
2023/01/24 09:17:12;;;;;;;7.50;5.65;;;1.80;99.90;;;;;;5020343;28;20037;-57
2023/01/24 09:19:38;;;;;;;10.23;5.82;;;1.80;99.90;;;;;;5020584;28;20037;-56
2023/01/24 09:22:03;;;;;;;8.77;5.75;;;1.80;99.90;;;;;;5020452;28;20122;-53
2023/01/24 09:24:29;;;;;;;8.65;5.57;;;1.80;99.90;;;;;;5018968;28;20103;-55
2023/01/24 09:26:55;;;;;;;9.45;5.82;;;1.80;99.90;;;;;;5018667;28;20120;-55
2023/01/24 09:29:20;;;;;;;8.60;5.78;;;1.80;99.90;;;;;;5020731;28;20045;-58
2023/01/24 09:31:49;;;;;;;7.72;5.53;;;1.80;99.90;;;;;;5019746;28;20072;-57
2023/01/24 09:34:15;;;;;;;7.47;5.35;;;1.80;99.90;;;;;;5019721;28;20030;-55
2023/01/24 09:36:40;;;;;;;10.70;5.85;;;1.90;99.90;;;;;;5018985;28;20396;-56
2023/01/24 09:39:06;;;;;;;7.50;5.05;;;1.90;99.90;;;;;;5019108;28;20030;-56
2023/01/24 09:41:58;;;;;;;10.43;5.72;;;1.90;99.90;;;;;;5019229;28;20040;-57
2023/01/24 09:44:42;;;;;;;10.02;6.07;;;1.90;99.90;;;;;;5018005;28;20029;-57
2023/01/24 09:47:24;;;;;;;7.05;5.60;;;2.00;99.90;;;;;;5018746;28;20026;-56
2023/01/24 09:50:02;;;;;;;10.27;5.15;;;2.00;99.90;;;;;;5016693;28;20026;-55
2023/01/24 09:52:41;;;;;;;7.95;5.57;;;2.00;99.90;;;;;;5017388;28;20087;-54
2023/01/24 09:55:39;;;;;;;7.20;5.85;;;2.00;99.90;;;;;;5018146;28;20054;-57
2023/01/24 09:58:18;;;;;;;7.45;5.63;;;2.10;99.90;;;;;;5017845;28;20444;-58
2023/01/24 10:00:45;;;;;;;11.27;6.22;;;2.10;99.90;;;;;;5019252;28;20022;-57
2023/01/24 10:03:22;;;;;;;8.38;5.40;;;2.10;99.90;;;;;;5017535;28;20087;-57
2023/01/24 10:05:51;;;;;;;7.57;4.95;;;2.10;99.90;;;;;;5019842;28;20088;-56
2023/01/24 10:08:42;;;;;;;7.13;4.85;;;2.10;99.90;;;;;;5018459;28;20021;-55
2023/01/24 10:11:26;;;;;;;6.40;5.05;;;2.10;99.90;;;;;;5019733;28;20046;-58
2023/01/24 10:14:28;;;;;;;8.65;4.55;;;2.10;99.90;;;;;;5018795;28;20045;-58
2023/01/24 10:17:04;;;;;;;6.07;4.82;;;2.10;99.90;;;;;;5019232;28;20029;-57
2023/01/24 10:19:36;;;;;;;6.68;5.25;;;2.10;99.90;;;;;;5016214;28;20022;-57
2023/01/24 10:22:31;;;;;;;7.47;4.88;;;2.10;99.90;;;;;;5020065;28;20036;-55
2023/01/24 10:25:03;;;;;;;7.18;5.22;;;2.20;99.90;;;;;;5016379;28;20571;-57
2023/01/24 10:27:38;;;;;;;7.65;5.70;;;2.20;99.90;;;;;;5498055;22;20032;-58
2023/01/24 10:30:18;;;;;;;7.00;5.13;;;2.20;99.90;;;;;;5018180;28;20030;-62
2023/01/24 10:32:46;;;;;;;9.55;6.43;;;2.20;99.90;;;;;;5017530;28;20083;-61
2023/01/24 10:35:22;;;;;;;7.35;5.28;;;2.20;99.90;;;;;;5018728;28;20014;-57
2023/01/24 10:37:55;;;;;;;6.70;5.68;;;2.30;99.90;;;;;;5018163;28;20021;-64
2023/01/24 10:40:22;;;;;;;10.07;6.78;;;2.30;99.90;;;;;;5016400;28;20042;-56
2023/01/24 10:42:48;;;;;;;7.95;6.00;;;2.30;99.90;;;;;;5019533;28;20127;-58
2023/01/24 10:45:35;;;;;;;7.47;6.03;;;2.30;99.90;;;;;;5016930;28;20124;-62
2023/01/24 10:48:41;;;;;;;8.68;6.25;;;2.40;99.90;;;;;;5017351;28;20488;-57
2023/01/24 10:51:12;;;;;;;9.23;5.90;;;2.30;99.90;;;;;;4978483;28;20037;-59
2023/01/24 10:53:39;;;;;;;8.02;6.28;;;2.30;99.90;;;;;;5018867;28;20052;-54
2023/01/24 10:56:06;;;;;;;8.80;6.47;;;2.30;99.90;;;;;;5016438;28;20551;-54
2023/01/24 10:58:36;;;;;;;8.32;5.72;;;2.40;99.90;;;;;;5018448;28;20026;-59
2023/01/24 11:01:18;;;;;;;10.20;6.75;;;2.30;99.90;;;;;;5017653;28;20132;-58
2023/01/24 11:03:44;;;;;;;8.23;6.38;;;2.30;99.90;;;;;;5018412;28;20057;-59
2023/01/24 11:06:24;;;;;;;8.32;5.90;;;2.30;99.90;;;;;;5017802;28;20395;-61
2023/01/24 11:08:55;;;;;;;9.27;6.35;;;2.30;99.90;;;;;;5016133;28;20026;-58
2023/01/24 11:11:24;;;;;;;10.30;6.80;;;2.30;99.90;;;;;;5017057;28;20045;-59
2023/01/24 11:13:55;;;;;;;8.50;6.60;;;2.20;99.90;;;;;;5018409;28;20018;-55
2023/01/24 11:16:26;;;;;;;9.48;6.82;;;2.20;99.90;;;;;;5018040;28;20030;-61
2023/01/24 11:18:57;;;;;;;10.20;6.30;;;2.10;99.90;;;;;;5017632;28;20041;-61
2023/01/24 11:21:22;;;;;;;10.65;7.00;;;2.10;99.90;;;;;;5018034;28;20122;-60
2023/01/24 11:24:06;;;;;;;8.73;6.72;;;2.10;99.90;;;;;;5017987;28;20113;-60
2023/01/24 11:26:36;;;;;;;8.27;6.45;;;2.10;99.90;;;;;;5017181;28;20029;-58
2023/01/24 11:29:14;;;;;;;8.38;6.35;;;2.20;99.90;;;;;;5015757;28;20033;-55
2023/01/24 11:32:03;;;;;;;11.68;7.60;;;2.10;99.90;;;;;;5017423;28;20064;-61
2023/01/24 11:35:08;;;;;;;8.60;6.55;;;2.00;99.90;;;;;;4976328;28;20077;-63
2023/01/24 11:37:58;;;;;;;10.40;7.40;;;1.90;99.90;;;;;;5017895;28;20038;-61
2023/01/24 11:40:45;;;;;;;9.38;6.95;;;1.90;99.90;;;;;;5018355;28;20038;-62
2023/01/24 11:43:29;;;;;;;9.57;6.47;;;1.90;99.90;;;;;;5018298;28;20036;-59
2023/01/24 11:46:30;;;;;;;9.35;6.10;;;1.90;99.90;;;;;;5016928;28;20060;-61
2023/01/24 11:48:59;;;;;;;10.35;6.07;;;1.90;99.90;;;;;;4975257;28;20038;-59
2023/01/24 11:51:46;;;;;;;10.43;7.15;;;2.00;99.90;;;;;;5010563;28;20097;-60
2023/01/24 11:54:25;;;;;;;10.73;6.63;;;2.10;99.90;;;;;;5017746;28;20028;-62
2023/01/24 11:57:01;;;;;;;8.70;6.47;;;2.10;99.90;;;;;;5015827;28;20018;-57
2023/01/24 11:59:45;;;;;;;9.13;6.95;;;2.20;99.90;;;;;;5017478;28;20060;-56
2023/01/24 12:02:23;;;;;;;9.43;6.70;;;2.20;99.90;;;;;;5017354;28;20033;-54
2023/01/24 12:05:13;;;;;;;8.55;6.63;;;2.20;99.90;;;;;;5017227;28;20038;-61
2023/01/24 12:07:51;;;;;;;12.15;7.60;;;2.30;99.90;;;;;;5017311;28;20067;-58
2023/01/24 12:10:29;;;;;;;9.60;7.32;;;2.30;99.90;;;;;;5016781;28;20052;-57
2023/01/24 12:13:00;;;;;;;10.93;7.68;;;2.30;99.90;;;;;;5017326;28;20036;-58
2023/01/24 12:15:43;;;;;;;8.73;7.03;;;2.40;99.90;;;;;;5017086;28;20092;-58
2023/01/24 12:18:23;;;;;;;10.00;7.30;;;2.30;99.90;;;;;;5016827;28;20025;-57
2023/01/24 12:21:03;;;;;;;9.48;6.68;;;2.40;99.90;;;;;;5019512;28;20022;-61
2023/01/24 12:23:38;;;;;;;10.70;7.25;;;2.40;99.90;;;;;;5021487;28;20436;-56
2023/01/24 12:26:14;;;;;;;10.85;7.40;;;2.40;99.90;;;;;;5021424;28;20052;-59
2023/01/24 12:29:03;;;;;;;9.88;7.05;;;2.40;99.90;;;;;;5019838;28;20075;-61
2023/01/24 12:31:43;;;;;;;10.98;7.53;;;2.30;99.90;;;;;;5035749;28;20128;-60
2023/01/24 12:34:32;;;;;;;11.85;7.07;;;2.20;99.90;;;;;;5021298;28;20114;-61
2023/01/24 12:37:23;;;;;;;9.95;6.82;;;2.20;99.90;;;;;;5021816;28;20032;-57
2023/01/24 12:40:15;;;;;;;9.30;7.18;;;2.20;99.90;;;;;;5021419;28;20575;-61
2023/01/24 12:42:52;;;;;;;9.98;7.07;;;2.30;99.90;;;;;;5021275;28;20025;-58
2023/01/24 12:45:30;;;;;;;10.00;6.82;;;2.30;99.90;;;;;;5019948;28;20542;-58
2023/01/24 12:48:08;;;;;;;10.75;8.23;;;2.30;99.90;;;;;;5020844;28;20116;-61
2023/01/24 12:50:40;;;;;;;9.90;7.40;;;2.30;99.90;;;;;;5019552;28;20414;-60
2023/01/24 12:53:26;;;;;;;11.63;7.57;;;2.20;99.90;;;;;;5019835;28;20033;-59
2023/01/24 12:56:21;;;;;;;10.43;6.40;;;2.30;99.90;;;;;;5020059;28;20072;-59
2023/01/24 12:58:50;;;;;;;8.90;7.28;;;2.30;99.90;;;;;;5016827;28;20029;-58
2023/01/24 13:01:33;;;;;;;9.75;7.47;;;2.30;99.90;;;;;;5035882;28;20068;-59
2023/01/24 13:04:22;;;;;;;9.30;7.15;;;2.30;99.90;;;;;;5018942;28;20022;-57
2023/01/24 13:06:54;;;;;;;10.32;7.13;;;2.40;99.90;;;;;;5018988;28;20602;-60
2023/01/24 13:09:38;;;;;;;9.68;7.05;;;2.40;99.90;;;;;;5020147;28;20029;-61
2023/01/24 13:12:08;;;;;;;10.55;7.28;;;2.40;99.90;;;;;;5020080;28;20032;-61
2023/01/24 13:14:50;;;;;;;10.02;7.28;;;2.40;99.90;;;;;;5020478;28;20040;-60
2023/01/24 13:17:23;;;;;;;10.75;7.25;;;2.40;99.90;;;;;;5020891;28;20018;-59
2023/01/24 13:20:10;;;;;;;9.18;7.03;;;2.40;99.90;;;;;;5020400;28;20018;-63
2023/01/24 13:22:56;;;;;;;8.55;6.80;;;2.40;99.90;;;;;;5036368;28;20036;-62
2023/01/24 13:25:46;;;;;;;;;;;2.40;99.90;;;;;;5020462;28;20053;-61
2023/01/24 13:28:20;;;;;;;8.23;6.57;;;2.30;99.90;;;;;;5019886;28;19920;-62
2023/01/24 13:30:55;;;;;;;12.48;7.38;;;2.30;99.90;;;;;;5018372;28;20026;-62
2023/01/24 13:33:32;;;;;;;9.63;6.55;;;2.40;99.90;;;;;;5020962;28;20125;-62
2023/01/24 13:36:02;;;;;;;10.57;6.53;;;2.30;99.90;;;;;;5019685;28;20022;-61
2023/01/24 13:38:41;;;;;;;9.60;7.05;;;2.30;99.90;;;;;;5020625;28;20076;-59
2023/01/24 13:41:14;;;;;;;10.23;8.10;;;2.20;99.90;;;;;;5018754;28;20048;-61